createdAt,value
2018-09-21T00:00:21.323Z,19.10
2018-09-21T00:01:24.679Z,19.10
2018-09-21T00:02:27.999Z,19.00
2018-09-21T00:03:31.327Z,19.00
2018-09-21T00:04:34.655Z,19.00
2018-09-21T00:05:38.095Z,19.00
2018-09-21T00:06:41.510Z,19.00
2018-09-21T00:07:44.824Z,18.90
2018-09-21T00:08:48.179Z,18.90
2018-09-21T00:09:51.532Z,18.80
2018-09-21T00:10:54.860Z,18.70
2018-09-21T00:11:58.167Z,18.80
2018-09-21T00:13:01.487Z,18.80
2018-09-21T00:14:04.851Z,18.90
2018-09-21T00:15:08.221Z,18.90
2018-09-21T00:16:11.547Z,18.90
2018-09-21T00:17:14.913Z,18.90
2018-09-21T00:18:18.299Z,19.00
2018-09-21T00:19:21.624Z,18.90
2018-09-21T00:20:24.974Z,18.90
2018-09-21T00:21:28.303Z,18.80
2018-09-21T00:22:31.628Z,18.80
2018-09-21T00:23:34.951Z,18.80
2018-09-21T00:24:38.329Z,18.80
2018-09-21T00:25:41.672Z,18.80
2018-09-21T00:26:44.995Z,18.80
2018-09-21T00:27:48.386Z,18.80
2018-09-21T00:28:51.706Z,18.80
2018-09-21T00:29:55.059Z,18.80
2018-09-21T00:30:58.405Z,18.80
2018-09-21T00:32:01.733Z,18.80
2018-09-21T00:33:05.047Z,18.80
2018-09-21T00:34:08.368Z,18.70
2018-09-21T00:35:12.328Z,18.80
2018-09-21T00:36:15.658Z,18.70
2018-09-21T00:37:19.027Z,18.70
2018-09-21T00:38:22.343Z,18.70
2018-09-21T00:39:25.676Z,18.70
2018-09-21T00:40:29.011Z,18.60
2018-09-21T00:41:32.331Z,18.60
2018-09-21T00:42:35.681Z,18.60
2018-09-21T00:43:39.012Z,18.60
2018-09-21T00:44:42.347Z,18.70
2018-09-21T00:45:45.674Z,18.60
2018-09-21T00:46:49.060Z,18.70
2018-09-21T00:47:52.395Z,18.60
2018-09-21T00:48:55.699Z,18.60
2018-09-21T00:49:59.003Z,18.60
2018-09-21T00:51:02.307Z,18.60
2018-09-21T00:52:05.655Z,18.60
2018-09-21T00:53:08.971Z,18.60
2018-09-21T00:54:12.267Z,18.70
2018-09-21T00:55:15.627Z,18.70
2018-09-21T00:56:18.943Z,18.70
2018-09-21T00:57:22.282Z,18.70
2018-09-21T00:58:25.591Z,18.60
2018-09-21T00:59:28.898Z,18.60
2018-09-21T01:00:32.198Z,18.70
2018-09-21T01:01:35.499Z,18.60
2018-09-21T01:02:38.847Z,18.60
2018-09-21T01:03:42.174Z,18.60
2018-09-21T01:04:45.609Z,18.60
2018-09-21T01:05:48.931Z,18.60
2018-09-21T01:06:52.235Z,18.50
2018-09-21T01:07:55.578Z,18.60
2018-09-21T01:08:58.887Z,18.60
2018-09-21T01:10:02.222Z,18.50
2018-09-21T01:11:05.527Z,18.50
2018-09-21T01:12:08.870Z,18.50
2018-09-21T01:13:12.224Z,18.50
2018-09-21T01:14:15.522Z,18.50
2018-09-21T01:15:18.920Z,18.60
2018-09-21T01:16:22.236Z,18.60
2018-09-21T01:17:25.571Z,18.60
2018-09-21T01:18:28.874Z,18.60
2018-09-21T01:19:32.181Z,18.60
2018-09-21T01:20:35.484Z,18.60
2018-09-21T01:21:38.835Z,18.50
2018-09-21T01:22:42.176Z,18.50
2018-09-21T01:23:45.512Z,18.40
2018-09-21T01:24:48.833Z,18.40
2018-09-21T01:25:52.152Z,18.40
2018-09-21T01:26:55.499Z,18.40
2018-09-21T01:27:58.834Z,18.40
2018-09-21T01:29:02.177Z,18.30
2018-09-21T01:30:05.681Z,18.30
2018-09-21T01:31:08.993Z,18.30
2018-09-21T01:32:12.443Z,18.30
2018-09-21T01:33:15.763Z,18.40
2018-09-21T01:34:19.108Z,18.40
2018-09-21T01:35:22.473Z,18.40
2018-09-21T01:36:25.803Z,18.40
2018-09-21T01:37:29.170Z,18.40
2018-09-21T01:38:32.479Z,18.40
2018-09-21T01:39:35.818Z,18.50
2018-09-21T01:40:39.106Z,18.50
2018-09-21T01:41:42.446Z,18.50
2018-09-21T01:42:45.796Z,18.60
2018-09-21T01:43:49.163Z,18.50
2018-09-21T01:44:52.475Z,18.40
2018-09-21T01:45:55.776Z,18.30
2018-09-21T01:46:59.100Z,18.30
2018-09-21T01:48:02.442Z,18.30
2018-09-21T01:49:05.830Z,18.30
2018-09-21T01:50:09.140Z,18.30
2018-09-21T01:51:12.477Z,18.30
2018-09-21T01:52:15.894Z,18.40
2018-09-21T01:53:19.230Z,18.40
2018-09-21T01:54:22.542Z,18.40
2018-09-21T01:55:25.895Z,18.40
2018-09-21T01:56:29.213Z,18.50
2018-09-21T01:57:32.518Z,18.50
2018-09-21T01:58:35.855Z,18.50
2018-09-21T01:59:39.270Z,18.40
2018-09-21T02:00:42.612Z,18.40
2018-09-21T02:01:45.915Z,18.40
2018-09-21T02:02:49.224Z,18.40
2018-09-21T02:03:52.750Z,18.40
2018-09-21T02:04:56.051Z,18.40
2018-09-21T02:05:59.355Z,18.40
2018-09-21T02:07:02.748Z,18.40
2018-09-21T02:08:06.058Z,18.40
2018-09-21T02:09:09.877Z,18.30
2018-09-21T02:10:13.210Z,18.40
2018-09-21T02:11:16.526Z,18.30
2018-09-21T02:12:19.843Z,18.40
2018-09-21T02:13:23.207Z,18.40
2018-09-21T02:14:26.536Z,18.40
2018-09-21T02:15:29.879Z,18.40
2018-09-21T02:16:33.219Z,18.30
2018-09-21T02:17:36.554Z,18.40
2018-09-21T02:18:39.899Z,18.30
2018-09-21T02:19:43.227Z,18.30
2018-09-21T02:20:46.551Z,18.20
2018-09-21T02:21:50.178Z,18.20
2018-09-21T02:22:53.514Z,18.10
2018-09-21T02:23:56.822Z,18.10
2018-09-21T02:25:00.175Z,18.10
2018-09-21T02:26:03.524Z,18.10
2018-09-21T02:27:06.876Z,18.10
2018-09-21T02:28:10.184Z,18.00
2018-09-21T02:29:13.494Z,18.10
2018-09-21T02:30:16.844Z,18.10
2018-09-21T02:31:20.184Z,18.10
2018-09-21T02:32:23.548Z,18.20
2018-09-21T02:33:26.887Z,18.20
2018-09-21T02:34:30.206Z,18.10
2018-09-21T02:35:33.554Z,18.20
2018-09-21T02:36:36.886Z,18.10
2018-09-21T02:37:40.200Z,18.10
2018-09-21T02:38:43.511Z,18.20
2018-09-21T02:39:46.859Z,18.20
2018-09-21T02:40:50.231Z,18.20
2018-09-21T02:41:53.567Z,18.20
2018-09-21T02:42:56.895Z,18.30
2018-09-21T02:44:00.265Z,18.30
2018-09-21T02:45:03.634Z,18.20
2018-09-21T02:46:06.957Z,18.30
2018-09-21T02:47:10.279Z,18.20
2018-09-21T02:48:13.607Z,18.30
2018-09-21T02:49:17.014Z,18.30
2018-09-21T02:50:20.384Z,18.30
2018-09-21T02:51:23.785Z,18.30
2018-09-21T02:52:27.099Z,18.20
2018-09-21T02:53:30.416Z,18.20
2018-09-21T02:54:33.744Z,18.30
2018-09-21T02:55:37.073Z,18.30
2018-09-21T02:56:41.129Z,18.30
2018-09-21T02:57:44.483Z,18.30
2018-09-21T02:58:47.865Z,18.30
2018-09-21T02:59:51.206Z,18.30
2018-09-21T03:00:54.606Z,18.20
2018-09-21T03:01:57.892Z,18.20
2018-09-21T03:03:01.213Z,18.20
2018-09-21T03:04:04.535Z,18.20
2018-09-21T03:05:07.860Z,18.10
2018-09-21T03:06:11.167Z,18.20
2018-09-21T03:07:14.558Z,18.20
2018-09-21T03:08:17.918Z,18.20
2018-09-21T03:09:21.226Z,18.20
2018-09-21T03:10:31.020Z,18.20
2018-09-21T03:11:34.342Z,18.10
2018-09-21T03:12:37.659Z,18.10
2018-09-21T03:13:41.108Z,18.10
2018-09-21T03:14:44.418Z,18.20
2018-09-21T03:15:47.779Z,18.10
2018-09-21T03:16:51.146Z,18.20
2018-09-21T03:17:54.473Z,18.10
2018-09-21T03:18:57.803Z,18.20
2018-09-21T03:20:01.123Z,18.10
2018-09-21T03:21:04.479Z,18.20
2018-09-21T03:22:07.795Z,18.20
2018-09-21T03:23:11.134Z,18.20
2018-09-21T03:24:14.492Z,18.10
2018-09-21T03:25:17.812Z,18.10
2018-09-21T03:26:21.147Z,18.10
2018-09-21T03:27:24.486Z,18.10
2018-09-21T03:28:27.813Z,18.10
2018-09-21T03:29:31.218Z,18.10
2018-09-21T03:30:34.531Z,18.00
2018-09-21T03:31:37.880Z,18.00
2018-09-21T03:32:41.198Z,18.00
2018-09-21T03:33:44.561Z,18.10
2018-09-21T03:34:48.016Z,18.00
2018-09-21T03:35:51.357Z,18.00
2018-09-21T03:36:54.736Z,18.00
2018-09-21T03:37:58.088Z,18.00
2018-09-21T03:39:01.426Z,18.00
2018-09-21T03:40:04.762Z,18.00
2018-09-21T03:41:08.118Z,18.00
2018-09-21T03:42:11.441Z,18.00
2018-09-21T03:43:14.871Z,18.00
2018-09-21T03:44:18.478Z,18.00
2018-09-21T03:45:21.804Z,17.90
2018-09-21T03:46:25.180Z,18.00
2018-09-21T03:47:28.520Z,18.00
2018-09-21T03:48:31.910Z,18.00
2018-09-21T03:49:35.261Z,18.00
2018-09-21T03:50:38.578Z,18.00
2018-09-21T03:51:41.914Z,18.00
2018-09-21T03:52:45.244Z,18.00
2018-09-21T03:53:48.559Z,18.00
2018-09-21T03:54:51.911Z,18.00
2018-09-21T03:55:55.227Z,18.00
2018-09-21T03:56:58.546Z,18.00
2018-09-21T03:58:01.872Z,18.00
2018-09-21T03:59:05.254Z,18.00
2018-09-21T04:00:08.996Z,18.00
2018-09-21T04:01:12.416Z,18.00
2018-09-21T04:02:15.683Z,18.00
2018-09-21T04:03:18.996Z,18.00
2018-09-21T04:04:22.351Z,18.10
2018-09-21T04:05:25.686Z,18.10
2018-09-21T04:06:29.024Z,18.10
2018-09-21T04:07:32.354Z,18.20
2018-09-21T04:08:35.708Z,18.20
2018-09-21T04:09:39.050Z,18.20
2018-09-21T04:10:42.363Z,18.30
2018-09-21T04:11:45.668Z,18.30
2018-09-21T04:12:48.972Z,18.40
2018-09-21T04:13:52.283Z,18.40
2018-09-21T04:14:55.624Z,18.40
2018-09-21T04:15:58.947Z,18.40
2018-09-21T04:17:02.275Z,18.40
2018-09-21T04:18:05.935Z,18.40
2018-09-21T04:19:09.282Z,18.40
2018-09-21T04:20:12.643Z,18.50
2018-09-21T04:21:15.953Z,18.50
2018-09-21T04:22:19.259Z,18.50
2018-09-21T04:23:22.595Z,18.60
2018-09-21T04:24:25.984Z,18.60
2018-09-21T04:25:29.460Z,18.60
2018-09-21T04:26:32.808Z,18.60
2018-09-21T04:27:36.115Z,18.60
2018-09-21T04:28:39.434Z,18.60
2018-09-21T04:29:42.818Z,18.60
2018-09-21T04:30:46.199Z,18.60
2018-09-21T04:31:49.514Z,18.70
2018-09-21T04:32:52.887Z,18.70
2018-09-21T04:33:56.213Z,18.80
2018-09-21T04:34:59.582Z,18.90
2018-09-21T04:36:02.978Z,19.00
2018-09-21T04:37:06.290Z,19.20
2018-09-21T04:38:09.597Z,19.40
2018-09-21T04:39:13.530Z,19.50
2018-09-21T04:40:16.890Z,19.70
2018-09-21T04:41:20.256Z,19.90
2018-09-21T04:42:23.588Z,20.00
2018-09-21T04:43:26.930Z,20.10
2018-09-21T04:44:30.253Z,20.20
2018-09-21T04:45:33.590Z,20.30
2018-09-21T04:46:37.023Z,20.50
2018-09-21T04:47:40.535Z,20.50
2018-09-21T04:48:43.863Z,20.60
2018-09-21T04:49:47.223Z,20.70
2018-09-21T04:50:50.587Z,20.80
2018-09-21T04:51:53.907Z,20.80
2018-09-21T04:52:57.231Z,20.90
2018-09-21T04:54:00.735Z,20.80
2018-09-21T04:55:04.111Z,20.80
2018-09-21T04:56:07.484Z,20.90
2018-09-21T04:57:10.806Z,20.90
2018-09-21T04:58:14.119Z,20.90
2018-09-21T04:59:17.514Z,21.00
2018-09-21T05:00:20.846Z,21.00
2018-09-21T05:01:24.361Z,21.10
2018-09-21T05:02:27.689Z,21.10
2018-09-21T05:03:31.019Z,21.10
2018-09-21T05:04:34.352Z,21.00
2018-09-21T05:05:37.724Z,21.10
2018-09-21T05:06:41.067Z,21.00
2018-09-21T05:07:44.428Z,21.00
2018-09-21T05:08:47.794Z,21.10
2018-09-21T05:09:51.137Z,21.10
2018-09-21T05:10:54.472Z,21.10
2018-09-21T05:11:57.798Z,21.10
2018-09-21T05:13:01.127Z,21.10
2018-09-21T05:14:04.635Z,21.10
2018-09-21T05:15:07.955Z,21.10
2018-09-21T05:16:11.304Z,21.10
2018-09-21T05:17:14.664Z,21.10
2018-09-21T05:18:17.999Z,21.10
2018-09-21T05:19:21.340Z,21.20
2018-09-21T05:20:24.715Z,21.20
2018-09-21T05:21:28.034Z,21.20
2018-09-21T05:22:31.376Z,21.20
2018-09-21T05:23:34.692Z,21.20
2018-09-21T05:24:38.027Z,21.20
2018-09-21T05:25:41.399Z,21.20
2018-09-21T05:26:44.752Z,21.20
2018-09-21T05:27:48.073Z,21.20
2018-09-21T05:28:51.413Z,21.20
2018-09-21T05:29:54.767Z,21.30
2018-09-21T05:30:58.459Z,21.20
2018-09-21T05:32:01.777Z,21.20
2018-09-21T05:33:05.088Z,21.20
2018-09-21T05:34:08.499Z,21.20
2018-09-21T05:35:11.881Z,21.30
2018-09-21T05:36:15.186Z,21.30
2018-09-21T05:37:18.546Z,21.30
2018-09-21T05:38:21.863Z,21.30
2018-09-21T05:39:25.180Z,21.20
2018-09-21T05:40:28.523Z,21.30
2018-09-21T05:41:31.859Z,21.20
2018-09-21T05:42:35.203Z,21.20
2018-09-21T05:43:38.526Z,21.20
2018-09-21T05:44:41.864Z,21.30
2018-09-21T05:45:45.223Z,21.30
2018-09-21T05:46:48.543Z,21.30
2018-09-21T05:47:51.864Z,21.30
2018-09-21T05:48:55.230Z,21.20
2018-09-21T05:49:58.604Z,21.20
2018-09-21T05:51:01.966Z,21.30
2018-09-21T05:52:05.304Z,21.20
2018-09-21T05:53:09.111Z,21.30
2018-09-21T05:54:12.436Z,21.30
2018-09-21T05:55:15.756Z,21.30
2018-09-21T05:56:19.130Z,21.30
2018-09-21T05:57:22.465Z,21.30
2018-09-21T05:58:25.770Z,21.30
2018-09-21T05:59:29.082Z,21.30
2018-09-21T06:00:32.411Z,21.30
2018-09-21T06:01:35.783Z,21.30
2018-09-21T06:02:39.197Z,21.30
2018-09-21T06:03:42.528Z,21.20
2018-09-21T06:04:45.882Z,21.20
2018-09-21T06:05:49.240Z,21.20
2018-09-21T06:06:52.555Z,21.20
2018-09-21T06:07:55.915Z,21.20
2018-09-21T06:08:59.299Z,21.20
2018-09-21T06:10:02.887Z,21.20
2018-09-21T06:11:06.211Z,21.20
2018-09-21T06:12:09.534Z,21.30
2018-09-21T06:13:12.866Z,21.30
2018-09-21T06:14:16.230Z,21.30
2018-09-21T06:15:19.556Z,21.30
2018-09-21T06:16:22.895Z,21.30
2018-09-21T06:17:26.219Z,21.30
2018-09-21T06:18:29.586Z,21.30
2018-09-21T06:19:32.950Z,21.30
2018-09-21T06:20:36.400Z,21.40
2018-09-21T06:21:39.718Z,21.40
2018-09-21T06:23:46.392Z,21.70
2018-09-21T06:24:49.701Z,21.80
2018-09-21T06:25:53.059Z,21.90
2018-09-21T06:26:56.417Z,22.00
2018-09-21T06:27:59.784Z,22.00
2018-09-21T06:29:03.124Z,22.00
2018-09-21T06:30:07.118Z,22.00
2018-09-21T06:31:10.436Z,21.90
2018-09-21T06:32:13.744Z,21.90
2018-09-21T06:33:17.155Z,21.90
2018-09-21T06:34:20.474Z,21.80
2018-09-21T06:35:23.791Z,21.80
2018-09-21T06:36:27.088Z,21.80
2018-09-21T06:37:30.403Z,21.90
2018-09-21T06:38:33.747Z,21.90
2018-09-21T06:39:37.088Z,21.90
2018-09-21T06:40:40.383Z,21.90
2018-09-21T06:41:43.703Z,21.90
2018-09-21T06:42:47.015Z,22.00
2018-09-21T06:43:50.323Z,22.00
2018-09-21T06:44:53.697Z,22.00
2018-09-21T06:45:57.021Z,22.00
2018-09-21T06:47:00.604Z,22.10
2018-09-21T06:48:03.942Z,22.00
2018-09-21T06:49:07.250Z,22.10
2018-09-21T06:50:10.564Z,22.10
2018-09-21T06:51:13.984Z,22.10
2018-09-21T06:52:17.398Z,22.10
2018-09-21T06:53:20.743Z,22.10
2018-09-21T06:54:24.158Z,22.20
2018-09-21T06:55:27.467Z,22.20
2018-09-21T06:56:30.788Z,22.20
2018-09-21T06:57:34.154Z,22.20
2018-09-21T06:58:37.477Z,22.30
2018-09-21T06:59:41.083Z,22.30
2018-09-21T07:00:44.463Z,22.30
2018-09-21T07:01:47.867Z,22.40
2018-09-21T07:02:51.095Z,22.40
2018-09-21T07:03:54.408Z,22.40
2018-09-21T07:05:03.082Z,22.40
2018-09-21T07:06:06.417Z,22.40
2018-09-21T07:07:09.723Z,22.40
2018-09-21T07:08:13.028Z,22.50
2018-09-21T07:09:16.363Z,22.60
2018-09-21T07:10:19.724Z,22.60
2018-09-21T07:11:23.057Z,22.60
2018-09-21T07:12:26.403Z,22.60
2018-09-21T07:13:29.802Z,22.70
2018-09-21T07:14:33.140Z,22.70
2018-09-21T07:15:36.463Z,22.80
2018-09-21T07:16:39.775Z,22.80
2018-09-21T07:17:43.087Z,22.90
2018-09-21T07:18:46.412Z,22.90
2018-09-21T07:20:59.366Z,23.00
2018-09-21T07:22:02.676Z,23.00
2018-09-21T07:23:05.990Z,23.10
2018-09-21T07:24:09.329Z,23.10
2018-09-21T07:25:12.644Z,23.10
2018-09-21T07:26:15.959Z,23.20
2018-09-21T07:27:19.372Z,23.20
2018-09-21T07:28:22.689Z,23.30
2018-09-21T07:29:26.026Z,23.40
2018-09-21T07:30:29.383Z,23.50
2018-09-21T07:31:32.722Z,23.60
2018-09-21T07:32:36.031Z,23.70
2018-09-21T07:33:39.385Z,23.80
2018-09-21T07:34:42.695Z,23.90
2018-09-21T07:35:46.029Z,24.00
2018-09-21T07:36:49.383Z,24.00
2018-09-21T07:37:53.043Z,24.10
2018-09-21T07:38:56.535Z,24.10
2018-09-21T07:39:59.863Z,24.10
2018-09-21T07:41:03.203Z,24.10
2018-09-21T07:42:06.564Z,24.00
2018-09-21T07:43:09.992Z,24.10
2018-09-21T07:44:13.319Z,24.10
2018-09-21T07:45:16.690Z,24.00
2018-09-21T07:46:26.735Z,23.90
2018-09-21T07:47:30.055Z,23.90
2018-09-21T07:48:33.392Z,23.90
2018-09-21T07:49:36.840Z,23.90
2018-09-21T07:50:40.251Z,23.90
2018-09-21T07:51:43.512Z,23.90
2018-09-21T07:52:46.843Z,23.90
2018-09-21T07:53:50.199Z,24.00
2018-09-21T07:54:53.568Z,24.00
2018-09-21T07:55:56.910Z,24.10
2018-09-21T07:57:00.643Z,24.10
2018-09-21T07:58:03.961Z,24.20
2018-09-21T07:59:07.608Z,24.30
2018-09-21T08:00:10.944Z,24.40
2018-09-21T08:01:14.269Z,24.40
2018-09-21T08:02:17.583Z,24.50
2018-09-21T08:03:20.923Z,24.60
2018-09-21T08:04:24.249Z,24.70
2018-09-21T08:05:27.776Z,24.70
2018-09-21T08:06:31.101Z,24.70
2018-09-21T08:07:34.431Z,24.80
2018-09-21T08:08:37.751Z,24.80
2018-09-21T08:09:41.111Z,24.90
2018-09-21T08:10:44.423Z,25.00
2018-09-21T08:11:47.739Z,25.00
2018-09-21T08:12:51.120Z,25.00
2018-09-21T08:13:54.419Z,25.10
2018-09-21T08:14:57.741Z,25.10
2018-09-21T08:16:01.055Z,25.00
2018-09-21T08:17:04.383Z,25.10
2018-09-21T08:18:07.748Z,25.00
2018-09-21T08:19:11.093Z,25.00
2018-09-21T08:20:14.421Z,25.00
2018-09-21T08:21:24.220Z,24.90
2018-09-21T08:22:27.596Z,24.90
2018-09-21T08:23:30.932Z,25.00
2018-09-21T08:24:34.263Z,24.90
2018-09-21T08:25:37.578Z,25.00
2018-09-21T08:26:40.967Z,25.00
2018-09-21T08:27:44.287Z,25.00
2018-09-21T08:28:47.605Z,25.00
2018-09-21T08:29:50.920Z,25.00
2018-09-21T08:30:54.230Z,25.00
2018-09-21T08:31:57.566Z,25.00
2018-09-21T08:33:00.935Z,25.00
2018-09-21T08:34:04.230Z,25.00
2018-09-21T08:35:07.570Z,25.00
2018-09-21T08:36:10.926Z,25.00
2018-09-21T08:37:15.104Z,25.00
2018-09-21T08:38:18.480Z,25.00
2018-09-21T08:39:21.850Z,25.00
2018-09-21T08:40:25.155Z,25.00
2018-09-21T08:41:28.466Z,25.00
2018-09-21T08:42:31.839Z,25.00
2018-09-21T08:43:35.158Z,25.00
2018-09-21T08:44:38.539Z,24.90
2018-09-21T08:45:41.890Z,25.00
2018-09-21T08:46:45.180Z,25.00
2018-09-21T08:47:48.491Z,25.00
2018-09-21T08:48:51.848Z,25.00
2018-09-21T08:49:55.314Z,25.00
2018-09-21T08:50:58.623Z,25.00
2018-09-21T08:52:01.942Z,24.90
2018-09-21T08:53:05.530Z,24.90
2018-09-21T08:54:08.895Z,25.00
2018-09-21T08:55:12.252Z,24.90
2018-09-21T08:56:15.578Z,24.90
2018-09-21T08:57:18.919Z,24.90
2018-09-21T08:58:22.255Z,24.80
2018-09-21T08:59:25.571Z,24.90
2018-09-21T09:00:28.909Z,24.90
2018-09-21T09:01:32.276Z,25.00
2018-09-21T09:02:35.639Z,24.90
2018-09-21T09:03:38.959Z,25.00
2018-09-21T09:04:42.283Z,25.00
2018-09-21T09:05:50.971Z,25.00
2018-09-21T09:06:54.309Z,25.00
2018-09-21T09:07:57.625Z,24.90
2018-09-21T09:09:00.971Z,24.90
2018-09-21T09:10:04.323Z,24.80
2018-09-21T09:11:07.636Z,24.80
2018-09-21T09:12:10.948Z,24.90
2018-09-21T09:13:14.264Z,24.80
2018-09-21T09:14:17.574Z,24.90
2018-09-21T09:15:20.919Z,25.00
2018-09-21T09:16:24.273Z,25.00
2018-09-21T09:17:27.590Z,25.10
2018-09-21T09:18:30.896Z,25.20
2018-09-21T09:19:34.251Z,25.30
2018-09-21T09:20:37.584Z,25.20
2018-09-21T09:21:40.906Z,25.20
2018-09-21T09:22:44.214Z,25.10
2018-09-21T09:23:47.560Z,25.10
2018-09-21T09:24:50.885Z,25.10
2018-09-21T09:25:54.201Z,25.10
2018-09-21T09:26:57.773Z,25.10
2018-09-21T09:28:01.097Z,25.20
2018-09-21T09:29:04.627Z,25.30
2018-09-21T09:30:08.042Z,25.50
2018-09-21T09:31:11.299Z,25.70
2018-09-21T09:32:14.619Z,25.80
2018-09-21T09:33:17.995Z,25.70
2018-09-21T09:34:21.337Z,25.60
2018-09-21T09:35:24.675Z,25.50
2018-09-21T09:36:27.987Z,25.50
2018-09-21T09:37:31.315Z,25.40
2018-09-21T09:38:34.660Z,25.30
2018-09-21T09:39:37.998Z,25.20
2018-09-21T09:40:41.352Z,25.20
2018-09-21T09:41:44.703Z,25.20
2018-09-21T09:42:48.101Z,25.10
2018-09-21T09:43:51.432Z,25.00
2018-09-21T09:44:54.758Z,25.00
2018-09-21T09:45:58.083Z,25.00
2018-09-21T09:47:01.432Z,24.90
2018-09-21T09:48:04.811Z,25.00
2018-09-21T09:49:08.152Z,25.00
2018-09-21T09:50:11.595Z,25.00
2018-09-21T09:51:14.918Z,25.10
2018-09-21T09:52:18.263Z,25.10
2018-09-21T09:53:21.656Z,25.00
2018-09-21T09:54:24.991Z,25.00
2018-09-21T09:55:28.328Z,24.90
2018-09-21T09:56:31.684Z,24.90
2018-09-21T09:57:35.008Z,25.00
2018-09-21T09:58:38.338Z,25.00
2018-09-21T09:59:41.663Z,25.00
2018-09-21T10:00:50.276Z,25.00
2018-09-21T10:01:53.628Z,25.00
2018-09-21T10:02:56.975Z,25.00
2018-09-21T10:04:00.388Z,24.90
2018-09-21T10:05:04.085Z,24.90
2018-09-21T10:06:07.399Z,24.90
2018-09-21T10:07:10.718Z,24.90
2018-09-21T10:08:14.359Z,24.80
2018-09-21T10:09:17.722Z,24.80
2018-09-21T10:10:21.089Z,24.80
2018-09-21T10:11:24.412Z,24.80
2018-09-21T10:12:34.460Z,24.80
2018-09-21T10:13:37.803Z,24.80
2018-09-21T10:14:41.114Z,24.80
2018-09-21T10:15:44.475Z,24.80
2018-09-21T10:16:47.789Z,24.80
2018-09-21T10:17:51.102Z,24.70
2018-09-21T10:18:54.432Z,24.70
2018-09-21T10:19:57.770Z,24.70
2018-09-21T10:21:01.073Z,24.70
2018-09-21T10:22:04.387Z,24.70
2018-09-21T10:23:07.735Z,24.80
2018-09-21T10:24:11.100Z,24.80
2018-09-21T10:25:14.408Z,24.80
2018-09-21T10:26:17.819Z,24.80
2018-09-21T10:27:21.265Z,24.80
2018-09-21T10:28:24.601Z,24.80
2018-09-21T10:29:27.805Z,24.80
2018-09-21T10:30:31.124Z,24.80
2018-09-21T10:31:34.447Z,24.80
2018-09-21T10:32:37.766Z,24.80
2018-09-21T10:33:41.213Z,24.80
2018-09-21T10:34:44.515Z,24.80
2018-09-21T10:35:47.840Z,24.80
2018-09-21T10:36:51.154Z,24.90
2018-09-21T10:38:01.253Z,24.90
2018-09-21T10:39:06.417Z,24.90
2018-09-21T10:40:09.752Z,24.90
2018-09-21T10:41:13.091Z,24.90
2018-09-21T10:42:16.423Z,24.90
2018-09-21T10:43:19.732Z,24.80
2018-09-21T10:44:23.073Z,24.80
2018-09-21T10:45:26.399Z,24.80
2018-09-21T10:46:29.731Z,24.80
2018-09-21T10:47:33.075Z,24.80
2018-09-21T10:48:36.471Z,24.70
2018-09-21T10:49:39.827Z,24.70
2018-09-21T10:50:43.188Z,24.70
2018-09-21T10:51:46.817Z,24.70
2018-09-21T10:52:50.173Z,24.70
2018-09-21T10:53:53.493Z,24.70
2018-09-21T10:54:57.142Z,24.70
2018-09-21T10:56:00.525Z,24.70
2018-09-21T10:57:03.843Z,24.70
2018-09-21T10:58:07.158Z,24.70
2018-09-21T10:59:10.540Z,24.70
2018-09-21T11:00:13.856Z,24.70
2018-09-21T11:01:17.223Z,24.70
2018-09-21T11:02:20.578Z,24.70
2018-09-21T11:03:24.011Z,24.70
2018-09-21T11:04:27.340Z,24.60
2018-09-21T11:05:30.715Z,24.60
2018-09-21T11:06:34.051Z,24.60
2018-09-21T11:07:37.419Z,24.60
2018-09-21T11:08:40.748Z,24.60
2018-09-21T11:09:44.068Z,24.60
2018-09-21T11:10:47.392Z,24.60
2018-09-21T11:11:50.741Z,24.50
2018-09-21T11:12:54.135Z,24.60
2018-09-21T11:13:57.433Z,24.60
2018-09-21T11:15:00.759Z,24.60
2018-09-21T11:16:04.183Z,24.60
2018-09-21T11:17:07.535Z,24.60
2018-09-21T11:18:10.859Z,24.60
2018-09-21T11:19:14.243Z,24.60
2018-09-21T11:20:17.628Z,24.50
2018-09-21T11:21:20.967Z,24.50
2018-09-21T11:22:24.436Z,24.40
2018-09-21T11:23:27.787Z,24.40
2018-09-21T11:24:31.122Z,24.30
2018-09-21T11:25:34.492Z,24.30
2018-09-21T11:26:37.818Z,24.20
2018-09-21T11:27:41.140Z,24.10
2018-09-21T11:28:44.490Z,24.10
2018-09-21T11:29:47.855Z,24.10
2018-09-21T11:30:51.203Z,24.10
2018-09-21T11:31:54.603Z,24.10
2018-09-21T11:32:57.942Z,24.00
2018-09-21T11:34:01.267Z,24.00
2018-09-21T11:35:04.634Z,24.00
2018-09-21T11:36:07.973Z,23.90
2018-09-21T11:37:11.285Z,23.90
2018-09-21T11:38:14.631Z,23.90
2018-09-21T11:39:17.968Z,23.80
2018-09-21T11:40:21.333Z,23.80
2018-09-21T11:41:24.687Z,23.80
2018-09-21T11:42:28.019Z,23.70
2018-09-21T11:43:31.324Z,23.70
2018-09-21T11:44:34.626Z,23.60
2018-09-21T11:45:37.975Z,23.60
2018-09-21T11:46:41.347Z,23.50
2018-09-21T11:47:44.689Z,23.50
2018-09-21T11:48:47.980Z,23.40
2018-09-21T11:49:51.301Z,23.30
2018-09-21T11:50:54.742Z,23.20
2018-09-21T11:51:58.076Z,23.10
2018-09-21T11:53:01.387Z,23.00
2018-09-21T11:54:04.707Z,22.80
2018-09-21T11:55:08.019Z,22.50
2018-09-21T11:56:11.375Z,22.10
2018-09-21T11:57:14.674Z,21.40
2018-09-21T11:58:18.007Z,20.60
2018-09-21T11:59:21.380Z,20.10
2018-09-21T12:00:24.723Z,19.50
2018-09-21T12:01:28.202Z,19.00
2018-09-21T12:02:31.553Z,18.70
2018-09-21T12:03:34.875Z,18.40
2018-09-21T12:04:38.183Z,18.10
2018-09-21T12:05:41.483Z,17.90
2018-09-21T12:06:44.827Z,17.80
2018-09-21T12:07:48.192Z,17.70
2018-09-21T12:08:51.500Z,17.60
2018-09-21T12:09:54.807Z,17.50
2018-09-21T12:10:58.106Z,17.40
2018-09-21T12:12:01.518Z,17.20
2018-09-21T12:13:04.846Z,17.10
2018-09-21T12:14:08.198Z,17.10
2018-09-21T12:15:11.566Z,17.00
2018-09-21T12:16:14.929Z,16.90
2018-09-21T12:17:18.290Z,16.80
2018-09-21T12:18:21.583Z,16.70
2018-09-21T12:19:24.927Z,16.60
2018-09-21T12:20:28.295Z,16.50
2018-09-21T12:21:31.624Z,16.40
2018-09-21T12:22:34.992Z,16.40
2018-09-21T12:23:38.267Z,16.30
2018-09-21T12:24:41.636Z,16.10
2018-09-21T12:25:44.970Z,16.20
2018-09-21T12:26:48.286Z,16.10
2018-09-21T12:27:51.617Z,16.00
2018-09-21T12:28:54.922Z,16.10
2018-09-21T12:29:58.262Z,16.00
2018-09-21T12:31:01.559Z,16.00
2018-09-21T12:32:04.866Z,16.00
2018-09-21T12:33:08.187Z,16.00
2018-09-21T12:34:11.490Z,16.10
2018-09-21T12:35:14.843Z,16.10
2018-09-21T12:36:18.166Z,16.20
2018-09-21T12:37:21.478Z,16.20
2018-09-21T12:38:24.777Z,16.20
2018-09-21T12:39:28.109Z,16.10
2018-09-21T12:40:31.474Z,16.00
2018-09-21T12:41:34.794Z,16.10
2018-09-21T12:42:38.196Z,16.10
2018-09-21T12:43:41.432Z,16.00
2018-09-21T12:44:44.776Z,16.00
2018-09-21T12:45:48.336Z,15.90
2018-09-21T12:46:51.687Z,16.00
2018-09-21T12:47:55.080Z,16.00
2018-09-21T12:49:00.579Z,16.00
2018-09-21T12:50:03.891Z,16.00
2018-09-21T12:51:07.200Z,16.00
2018-09-21T12:52:10.543Z,16.00
2018-09-21T12:53:13.887Z,16.00
2018-09-21T12:54:17.191Z,16.00
2018-09-21T12:55:20.527Z,16.00
2018-09-21T12:56:24.277Z,16.00
2018-09-21T12:57:27.774Z,15.90
2018-09-21T12:58:31.260Z,15.80
2018-09-21T12:59:34.427Z,15.70
2018-09-21T13:00:43.208Z,15.50
2018-09-21T13:01:46.511Z,15.50
2018-09-21T13:02:49.822Z,15.50
2018-09-21T13:03:53.119Z,15.50
2018-09-21T13:04:56.419Z,15.40
2018-09-21T13:05:59.801Z,15.30
2018-09-21T13:07:03.151Z,15.30
2018-09-21T13:08:06.562Z,15.20
2018-09-21T13:09:09.896Z,15.10
2018-09-21T13:10:13.220Z,15.10
2018-09-21T13:11:16.700Z,15.10
2018-09-21T13:12:20.048Z,15.10
2018-09-21T13:13:23.398Z,15.00
2018-09-21T13:14:26.762Z,14.90
2018-09-21T13:15:30.134Z,14.90
2018-09-21T13:16:33.500Z,14.90
2018-09-21T13:17:36.819Z,15.00
2018-09-21T13:18:40.130Z,15.10
2018-09-21T13:19:43.452Z,15.10
2018-09-21T13:20:46.775Z,15.00
2018-09-21T13:21:50.147Z,15.10
2018-09-21T13:22:53.471Z,15.10
2018-09-21T13:23:56.867Z,15.10
2018-09-21T13:25:00.192Z,15.10
2018-09-21T13:26:03.607Z,15.20
2018-09-21T13:27:06.977Z,15.20
2018-09-21T13:28:10.297Z,15.20
2018-09-21T13:29:13.961Z,15.20
2018-09-21T13:30:17.281Z,15.20
2018-09-21T13:31:20.662Z,15.10
2018-09-21T13:32:24.072Z,15.20
2018-09-21T13:33:27.347Z,15.10
2018-09-21T13:34:30.679Z,15.20
2018-09-21T13:35:34.003Z,15.20
2018-09-21T13:36:37.359Z,15.10
2018-09-21T13:37:40.694Z,15.00
2018-09-21T13:38:44.014Z,15.00